Aérodrome :
LOGIN :

S'inscrire | Disclaimer

   EN    FR    IT 

 










Légende :    VFR   VFR Marginal   IFR   IFR Intensif   IFR Très Intensif
Visi : 
Plafond : 
>= 8 km
>= 3000ft
5 à 8 km
1000 à 3000 ft
1500m à 5 km
500 à 1000 ft
800 à 1500m
200 à 500 ft
< 800m
< 200 ft
Symboles :   Orages  Brouillard  Fortes neiges  Fortes précipitations  Vent > 20 kt
SIGMETs :   Divers  Orages  Givrage  Turbulence  Onde Orograph.  Cendres Volcan.







- Altitude de l'aérodrome : 16 ft
- Code IATA : EAS


LESO - San Sebastian Fuenterrabia

DERNIER METAR :
  • 210430Z VRB13G23KT 9999 OVC009 14/12 Q1026

METARs EXPIRÉS :
  • 210400Z AUTO 28012G26KT 190V350 6000 -RA OVC009/// 14/12 Q1026
  • 210330Z AUTO VRB08G24KT 6000 -RA BKN008/// 14/12 Q1026
  • 210300Z AUTO 27008KT 220V350 3200 RA BR VV001 13/12 Q1026
  • 210230Z AUTO VRB08G18KT 2300 RA BR VV001 13/12 Q1026
  • 210200Z AUTO VRB08G18KT 2300 +RA BR VV001 13/12 Q1025

TAF TAF LESO
Valide du 21 à 00h jusqu'au 22 à 00h UTC


202300Z 2100/2124 27009KT 9999 SCT020 BKN030 TX15/2115Z TN11/2104Z
TEMPO 2100/2108 27015G30KT
PROB40
TEMPO 2100/2103 28025G40KT
TEMPO 2100/2118 3000 -RADZ BKN010
PROB40
TEMPO 2100/2112 1500 RA BKN005 BKN010
Pas de NOTAMs connus pour ce terrain.



MET'MAP, la Météo Aéronautique d'un coup d'oeil ! - Copyright ORBIFLY Décembre 2007 - Disclaimer

ORBIFLY MET'MAP TEAM :

Programmation & Développement : Alexandra Zaïnal
Conception & Développement : Baudouin d'Aumeries
Co-Programmation & Développement : Marc-Olivier Méhu
Soutien technique & logistique : Manuel Goepfert

Contact : metmap@orbifly.com




SOURCES & CREDITS :

   NOAA